sensor_id;sensor_type;location;lat;lon;timestamp;P1;P2;P0
56688;PMS5003;42565;53.342;-1.534;2022-09-01T00:02:22;12;11;
56688;PMS5003;42565;53.342;-1.534;2022-09-01T00:04:50;11;10;
56688;PMS5003;42565;53.342;-1.534;2022-09-01T00:07:16;12;11;
56688;PMS5003;42565;53.342;-1.534;2022-09-01T00:09:43;10;10;
56688;PMS5003;42565;53.342;-1.534;2022-09-01T00:12:10;13;12;
56688;PMS5003;42565;53.342;-1.534;2022-09-01T00:14:38;11;11;
56688;PMS5003;42565;53.342;-1.534;2022-09-01T00:17:08;13;13;
56688;PMS5003;42565;53.342;-1.534;2022-09-01T00:19:37;14;12;
56688;PMS5003;42565;53.342;-1.534;2022-09-01T00:22:05;11;11;
56688;PMS5003;42565;53.342;-1.534;2022-09-01T00:24:33;11;10;
56688;PMS5003;42565;53.342;-1.534;2022-09-01T00:27:02;12;11;
56688;PMS5003;42565;53.342;-1.534;2022-09-01T00:29:30;14;12;
56688;PMS5003;42565;53.342;-1.534;2022-09-01T00:31:57;12;11;
56688;PMS5003;42565;53.342;-1.534;2022-09-01T00:34:24;12;11;
56688;PMS5003;42565;53.342;-1.534;2022-09-01T00:36:52;11;10;
56688;PMS5003;42565;53.342;-1.534;2022-09-01T00:39:18;9;9;
56688;PMS5003;42565;53.342;-1.534;2022-09-01T00:41:45;11;10;
56688;PMS5003;42565;53.342;-1.534;2022-09-01T00:44:14;13;13;
56688;PMS5003;42565;53.342;-1.534;2022-09-01T00:46:44;11;11;
56688;PMS5003;42565;53.342;-1.534;2022-09-01T00:49:15;10;9;
56688;PMS5003;42565;53.342;-1.534;2022-09-01T00:51:47;11;10;
56688;PMS5003;42565;53.342;-1.534;2022-09-01T00:54:17;10;10;
56688;PMS5003;42565;53.342;-1.534;2022-09-01T00:56:47;12;12;
56688;PMS5003;42565;53.342;-1.534;2022-09-01T00:59:16;10;10;
56688;PMS5003;42565;53.342;-1.534;2022-09-01T01:01:45;13;12;
56688;PMS5003;42565;53.342;-1.534;2022-09-01T01:04:13;12;12;
56688;PMS5003;42565;53.342;-1.534;2022-09-01T01:06:41;11;11;
56688;PMS5003;42565;53.342;-1.534;2022-09-01T01:09:09;13;13;
56688;PMS5003;42565;53.342;-1.534;2022-09-01T01:11:37;13;13;
56688;PMS5003;42565;53.342;-1.534;2022-09-01T01:14:06;12;11;
56688;PMS5003;42565;53.342;-1.534;2022-09-01T01:16:35;12;11;
56688;PMS5003;42565;53.342;-1.534;2022-09-01T01:19:02;15;13;
56688;PMS5003;42565;53.342;-1.534;2022-09-01T01:21:31;15;15;
56688;PMS5003;42565;53.342;-1.534;2022-09-01T01:24:06;16;16;
56688;PMS5003;42565;53.342;-1.534;2022-09-01T01:26:42;14;13;
56688;PMS5003;42565;53.342;-1.534;2022-09-01T01:29:09;16;16;
56688;PMS5003;42565;53.342;-1.534;2022-09-01T01:31:36;17;17;
56688;PMS5003;42565;53.342;-1.534;2022-09-01T01:34:03;14;14;
56688;PMS5003;42565;53.342;-1.534;2022-09-01T01:36:31;17;16;
56688;PMS5003;42565;53.342;-1.534;2022-09-01T01:39:02;17;16;
56688;PMS5003;42565;53.342;-1.534;2022-09-01T01:41:32;20;19;
56688;PMS5003;42565;53.342;-1.534;2022-09-01T01:44:01;16;15;
56688;PMS5003;42565;53.342;-1.534;2022-09-01T01:46:30;14;14;
56688;PMS5003;42565;53.342;-1.534;2022-09-01T01:48:59;15;15;
56688;PMS5003;42565;53.342;-1.534;2022-09-01T01:51:27;14;14;
56688;PMS5003;42565;53.342;-1.534;2022-09-01T01:53:54;17;16;
56688;PMS5003;42565;53.342;-1.534;2022-09-01T01:56:22;18;17;
56688;PMS5003;42565;53.342;-1.534;2022-09-01T01:58:49;16;16;
56688;PMS5003;42565;53.342;-1.534;2022-09-01T02:01:16;17;17;
56688;PMS5003;42565;53.342;-1.534;2022-09-01T02:03:43;16;16;
56688;PMS5003;42565;53.342;-1.534;2022-09-01T02:06:10;15;14;
56688;PMS5003;42565;53.342;-1.534;2022-09-01T02:08:38;15;15;
56688;PMS5003;42565;53.342;-1.534;2022-09-01T02:11:07;15;14;
56688;PMS5003;42565;53.342;-1.534;2022-09-01T02:13:34;20;19;
56688;PMS5003;42565;53.342;-1.534;2022-09-01T02:16:02;17;17;
56688;PMS5003;42565;53.342;-1.534;2022-09-01T02:18:32;18;17;
56688;PMS5003;42565;53.342;-1.534;2022-09-01T02:21:03;16;16;
56688;PMS5003;42565;53.342;-1.534;2022-09-01T02:23:31;15;15;
56688;PMS5003;42565;53.342;-1.534;2022-09-01T02:25:58;17;17;
56688;PMS5003;42565;53.342;-1.534;2022-09-01T02:28:25;18;18;
56688;PMS5003;42565;53.342;-1.534;2022-09-01T02:30:53;17;17;
56688;PMS5003;42565;53.342;-1.534;2022-09-01T02:33:20;15;15;
56688;PMS5003;42565;53.342;-1.534;2022-09-01T02:35:48;17;17;
56688;PMS5003;42565;53.342;-1.534;2022-09-01T02:38:17;17;16;
56688;PMS5003;42565;53.342;-1.534;2022-09-01T02:40:45;14;14;
56688;PMS5003;42565;53.342;-1.534;2022-09-01T02:43:13;19;16;
56688;PMS5003;42565;53.342;-1.534;2022-09-01T02:45:42;15;14;
56688;PMS5003;42565;53.342;-1.534;2022-09-01T02:48:10;15;15;
56688;PMS5003;42565;53.342;-1.534;2022-09-01T02:50:37;16;16;
56688;PMS5003;42565;53.342;-1.534;2022-09-01T02:53:06;13;13;
56688;PMS5003;42565;53.342;-1.534;2022-09-01T02:55:34;17;16;
56688;PMS5003;42565;53.342;-1.534;2022-09-01T02:58:02;14;14;
56688;PMS5003;42565;53.342;-1.534;2022-09-01T03:00:30;17;16;
56688;PMS5003;42565;53.342;-1.534;2022-09-01T03:02:59;18;17;
56688;PMS5003;42565;53.342;-1.534;2022-09-01T03:05:27;17;17;
56688;PMS5003;42565;53.342;-1.534;2022-09-01T03:07:57;17;16;
56688;PMS5003;42565;53.342;-1.534;2022-09-01T03:10:26;15;14;
56688;PMS5003;42565;53.342;-1.534;2022-09-01T03:12:56;13;12;
56688;PMS5003;42565;53.342;-1.534;2022-09-01T03:15:25;18;15;
56688;PMS5003;42565;53.342;-1.534;2022-09-01T03:17:52;13;12;
56688;PMS5003;42565;53.342;-1.534;2022-09-01T03:20:19;15;12;
56688;PMS5003;42565;53.342;-1.534;2022-09-01T03:22:47;16;15;
56688;PMS5003;42565;53.342;-1.534;2022-09-01T03:25:15;10;10;
56688;PMS5003;42565;53.342;-1.534;2022-09-01T03:27:43;13;13;
56688;PMS5003;42565;53.342;-1.534;2022-09-01T03:30:11;14;13;
56688;PMS5003;42565;53.342;-1.534;2022-09-01T03:32:38;13;13;
56688;PMS5003;42565;53.342;-1.534;2022-09-01T03:35:05;13;13;
56688;PMS5003;42565;53.342;-1.534;2022-09-01T03:37:33;14;14;
56688;PMS5003;42565;53.342;-1.534;2022-09-01T03:40:01;12;12;
56688;PMS5003;42565;53.342;-1.534;2022-09-01T03:42:29;12;12;
56688;PMS5003;42565;53.342;-1.534;2022-09-01T03:44:57;15;13;
56688;PMS5003;42565;53.342;-1.534;2022-09-01T03:47:24;13;13;
56688;PMS5003;42565;53.342;-1.534;2022-09-01T03:49:51;14;12;
56688;PMS5003;42565;53.342;-1.534;2022-09-01T03:52:18;12;12;
56688;PMS5003;42565;53.342;-1.534;2022-09-01T03:54:45;9;9;
56688;PMS5003;42565;53.342;-1.534;2022-09-01T03:57:11;13;11;
56688;PMS5003;42565;53.342;-1.534;2022-09-01T03:59:39;14;14;
56688;PMS5003;42565;53.342;-1.534;2022-09-01T04:02:05;13;12;
56688;PMS5003;42565;53.342;-1.534;2022-09-01T04:04:33;16;14;
56688;PMS5003;42565;53.342;-1.534;2022-09-01T04:07:00;14;13;
56688;PMS5003;42565;53.342;-1.534;2022-09-01T04:09:27;14;12;
56688;PMS5003;42565;53.342;-1.534;2022-09-01T04:11:53;15;15;
56688;PMS5003;42565;53.342;-1.534;2022-09-01T04:14:20;15;14;
56688;PMS5003;42565;53.342;-1.534;2022-09-01T04:16:47;14;14;
56688;PMS5003;42565;53.342;-1.534;2022-09-01T04:19:14;14;13;
56688;PMS5003;42565;53.342;-1.534;2022-09-01T04:21:44;14;14;
56688;PMS5003;42565;53.342;-1.534;2022-09-01T04:24:12;15;14;
56688;PMS5003;42565;53.342;-1.534;2022-09-01T04:26:39;13;13;
56688;PMS5003;42565;53.342;-1.534;2022-09-01T04:29:05;13;13;
56688;PMS5003;42565;53.342;-1.534;2022-09-01T04:31:34;14;14;
56688;PMS5003;42565;53.342;-1.534;2022-09-01T04:34:03;13;13;
56688;PMS5003;42565;53.342;-1.534;2022-09-01T04:36:31;15;15;
56688;PMS5003;42565;53.342;-1.534;2022-09-01T04:38:59;15;15;
56688;PMS5003;42565;53.342;-1.534;2022-09-01T04:41:28;13;13;
56688;PMS5003;42565;53.342;-1.534;2022-09-01T04:43:58;12;12;
56688;PMS5003;42565;53.342;-1.534;2022-09-01T04:46:27;15;15;
56688;PMS5003;42565;53.342;-1.534;2022-09-01T04:48:53;17;15;
56688;PMS5003;42565;53.342;-1.534;2022-09-01T04:51:21;17;13;
56688;PMS5003;42565;53.342;-1.534;2022-09-01T04:53:48;16;16;
56688;PMS5003;42565;53.342;-1.534;2022-09-01T04:56:16;21;18;
56688;PMS5003;42565;53.342;-1.534;2022-09-01T04:58:46;14;14;
56688;PMS5003;42565;53.342;-1.534;2022-09-01T05:01:14;17;17;
56688;PMS5003;42565;53.342;-1.534;2022-09-01T05:03:42;17;17;
56688;PMS5003;42565;53.342;-1.534;2022-09-01T05:06:11;20;19;
56688;PMS5003;42565;53.342;-1.534;2022-09-01T05:08:40;21;18;
56688;PMS5003;42565;53.342;-1.534;2022-09-01T05:11:07;21;20;
56688;PMS5003;42565;53.342;-1.534;2022-09-01T05:13:35;17;16;
56688;PMS5003;42565;53.342;-1.534;2022-09-01T05:16:04;19;16;
56688;PMS5003;42565;53.342;-1.534;2022-09-01T05:18:33;18;17;
56688;PMS5003;42565;53.342;-1.534;2022-09-01T05:21:03;19;18;
56688;PMS5003;42565;53.342;-1.534;2022-09-01T05:23:32;23;21;
56688;PMS5003;42565;53.342;-1.534;2022-09-01T05:25:59;18;17;
56688;PMS5003;42565;53.342;-1.534;2022-09-01T05:28:27;18;18;
56688;PMS5003;42565;53.342;-1.534;2022-09-01T05:30:54;20;19;
56688;PMS5003;42565;53.342;-1.534;2022-09-01T05:33:21;17;15;
56688;PMS5003;42565;53.342;-1.534;2022-09-01T05:35:51;20;20;
56688;PMS5003;42565;53.342;-1.534;2022-09-01T05:38:19;25;23;
56688;PMS5003;42565;53.342;-1.534;2022-09-01T05:40:53;16;16;
56688;PMS5003;42565;53.342;-1.534;2022-09-01T05:43:22;21;20;
56688;PMS5003;42565;53.342;-1.534;2022-09-01T05:45:49;19;17;
56688;PMS5003;42565;53.342;-1.534;2022-09-01T05:48:17;23;20;
56688;PMS5003;42565;53.342;-1.534;2022-09-01T05:50:44;21;20;
56688;PMS5003;42565;53.342;-1.534;2022-09-01T05:53:12;24;22;
56688;PMS5003;42565;53.342;-1.534;2022-09-01T05:55:39;22;22;
56688;PMS5003;42565;53.342;-1.534;2022-09-01T05:58:06;20;19;
56688;PMS5003;42565;53.342;-1.534;2022-09-01T06:00:34;22;21;
56688;PMS5003;42565;53.342;-1.534;2022-09-01T06:03:02;22;21;
56688;PMS5003;42565;53.342;-1.534;2022-09-01T06:05:29;24;23;
56688;PMS5003;42565;53.342;-1.534;2022-09-01T06:08:00;21;20;
56688;PMS5003;42565;53.342;-1.534;2022-09-01T06:10:27;20;19;
56688;PMS5003;42565;53.342;-1.534;2022-09-01T06:12:54;19;19;
56688;PMS5003;42565;53.342;-1.534;2022-09-01T06:15:21;18;18;
56688;PMS5003;42565;53.342;-1.534;2022-09-01T06:17:48;21;21;
56688;PMS5003;42565;53.342;-1.534;2022-09-01T06:20:16;17;16;
56688;PMS5003;42565;53.342;-1.534;2022-09-01T06:22:43;22;20;
56688;PMS5003;42565;53.342;-1.534;2022-09-01T06:25:10;16;15;
56688;PMS5003;42565;53.342;-1.534;2022-09-01T06:27:37;15;14;
56688;PMS5003;42565;53.342;-1.534;2022-09-01T06:30:05;16;15;
56688;PMS5003;42565;53.342;-1.534;2022-09-01T06:32:32;16;16;
56688;PMS5003;42565;53.342;-1.534;2022-09-01T06:34:59;19;18;
56688;PMS5003;42565;53.342;-1.534;2022-09-01T06:37:26;18;15;
56688;PMS5003;42565;53.342;-1.534;2022-09-01T06:39:53;15;15;
56688;PMS5003;42565;53.342;-1.534;2022-09-01T06:42:20;17;15;
56688;PMS5003;42565;53.342;-1.534;2022-09-01T06:44:46;17;17;
56688;PMS5003;42565;53.342;-1.534;2022-09-01T06:47:13;16;14;
56688;PMS5003;42565;53.342;-1.534;2022-09-01T06:49:41;17;16;
56688;PMS5003;42565;53.342;-1.534;2022-09-01T06:52:08;18;18;
56688;PMS5003;42565;53.342;-1.534;2022-09-01T06:54:36;18;15;
56688;PMS5003;42565;53.342;-1.534;2022-09-01T06:57:04;17;17;
56688;PMS5003;42565;53.342;-1.534;2022-09-01T06:59:31;17;16;
56688;PMS5003;42565;53.342;-1.534;2022-09-01T07:02:00;16;16;
56688;PMS5003;42565;53.342;-1.534;2022-09-01T07:04:27;18;17;
56688;PMS5003;42565;53.342;-1.534;2022-09-01T07:06:55;18;17;
56688;PMS5003;42565;53.342;-1.534;2022-09-01T07:09:22;15;15;
56688;PMS5003;42565;53.342;-1.534;2022-09-01T07:11:50;19;19;
56688;PMS5003;42565;53.342;-1.534;2022-09-01T07:14:16;17;17;
56688;PMS5003;42565;53.342;-1.534;2022-09-01T07:16:44;16;14;
56688;PMS5003;42565;53.342;-1.534;2022-09-01T07:19:11;21;21;
56688;PMS5003;42565;53.342;-1.534;2022-09-01T07:21:38;17;15;
56688;PMS5003;42565;53.342;-1.534;2022-09-01T07:24:07;21;21;
56688;PMS5003;42565;53.342;-1.534;2022-09-01T07:26:35;19;18;
56688;PMS5003;42565;53.342;-1.534;2022-09-01T07:29:04;17;16;
56688;PMS5003;42565;53.342;-1.534;2022-09-01T07:31:33;18;18;
56688;PMS5003;42565;53.342;-1.534;2022-09-01T07:34:02;17;17;
56688;PMS5003;42565;53.342;-1.534;2022-09-01T07:36:31;13;13;
56688;PMS5003;42565;53.342;-1.534;2022-09-01T07:38:59;14;13;
56688;PMS5003;42565;53.342;-1.534;2022-09-01T07:41:25;14;14;
56688;PMS5003;42565;53.342;-1.534;2022-09-01T07:43:53;13;13;
56688;PMS5003;42565;53.342;-1.534;2022-09-01T07:46:21;12;12;
56688;PMS5003;42565;53.342;-1.534;2022-09-01T07:48:50;11;11;
56688;PMS5003;42565;53.342;-1.534;2022-09-01T07:51:19;11;10;
56688;PMS5003;42565;53.342;-1.534;2022-09-01T07:53:48;9;9;
56688;PMS5003;42565;53.342;-1.534;2022-09-01T07:56:15;11;10;
56688;PMS5003;42565;53.342;-1.534;2022-09-01T07:58:45;8;8;
56688;PMS5003;42565;53.342;-1.534;2022-09-01T08:01:14;8;7;
56688;PMS5003;42565;53.342;-1.534;2022-09-01T08:03:43;6;6;
56688;PMS5003;42565;53.342;-1.534;2022-09-01T08:06:12;9;9;
56688;PMS5003;42565;53.342;-1.534;2022-09-01T08:08:42;8;6;
56688;PMS5003;42565;53.342;-1.534;2022-09-01T08:11:14;7;6;
56688;PMS5003;42565;53.342;-1.534;2022-09-01T08:13:42;8;7;
56688;PMS5003;42565;53.342;-1.534;2022-09-01T08:16:09;7;6;
56688;PMS5003;42565;53.342;-1.534;2022-09-01T08:18:37;5;5;
56688;PMS5003;42565;53.342;-1.534;2022-09-01T08:21:04;8;6;
56688;PMS5003;42565;53.342;-1.534;2022-09-01T08:23:32;5;5;
56688;PMS5003;42565;53.342;-1.534;2022-09-01T08:26:03;5;5;
56688;PMS5003;42565;53.342;-1.534;2022-09-01T08:28:32;7;6;
56688;PMS5003;42565;53.342;-1.534;2022-09-01T08:30:59;7;6;
56688;PMS5003;42565;53.342;-1.534;2022-09-01T08:33:30;10;9;
56688;PMS5003;42565;53.342;-1.534;2022-09-01T08:35:57;10;9;
56688;PMS5003;42565;53.342;-1.534;2022-09-01T08:38:24;8;8;
56688;PMS5003;42565;53.342;-1.534;2022-09-01T08:40:52;8;7;
56688;PMS5003;42565;53.342;-1.534;2022-09-01T08:43:22;6;6;
56688;PMS5003;42565;53.342;-1.534;2022-09-01T08:46:01;7;7;
56688;PMS5003;42565;53.342;-1.534;2022-09-01T08:48:36;8;7;
56688;PMS5003;42565;53.342;-1.534;2022-09-01T08:51:09;8;7;
56688;PMS5003;42565;53.342;-1.534;2022-09-01T08:53:45;6;6;
56688;PMS5003;42565;53.342;-1.534;2022-09-01T08:56:17;6;5;
56688;PMS5003;42565;53.342;-1.534;2022-09-01T08:58:45;6;5;
56688;PMS5003;42565;53.342;-1.534;2022-09-01T09:01:14;5;5;
56688;PMS5003;42565;53.342;-1.534;2022-09-01T09:04:01;6;5;
56688;PMS5003;42565;53.342;-1.534;2022-09-01T09:06:39;6;5;
56688;PMS5003;42565;53.342;-1.534;2022-09-01T09:09:17;8;7;
56688;PMS5003;42565;53.342;-1.534;2022-09-01T09:11:52;8;7;
56688;PMS5003;42565;53.342;-1.534;2022-09-01T09:14:34;7;7;
56688;PMS5003;42565;53.342;-1.534;2022-09-01T09:17:12;8;8;
56688;PMS5003;42565;53.342;-1.534;2022-09-01T09:19:43;7;6;
56688;PMS5003;42565;53.342;-1.534;2022-09-01T09:22:12;7;6;
56688;PMS5003;42565;53.342;-1.534;2022-09-01T09:24:43;5;5;
56688;PMS5003;42565;53.342;-1.534;2022-09-01T09:27:16;7;7;
56688;PMS5003;42565;53.342;-1.534;2022-09-01T09:29:47;5;5;
56688;PMS5003;42565;53.342;-1.534;2022-09-01T09:32:15;8;7;
56688;PMS5003;42565;53.342;-1.534;2022-09-01T09:34:42;6;6;
56688;PMS5003;42565;53.342;-1.534;2022-09-01T09:37:19;5;5;
56688;PMS5003;42565;53.342;-1.534;2022-09-01T09:40:21;5;5;
56688;PMS5003;42565;53.342;-1.534;2022-09-01T09:43:05;6;5;
56688;PMS5003;42565;53.342;-1.534;2022-09-01T09:45:33;3;3;
56688;PMS5003;42565;53.342;-1.534;2022-09-01T09:48:05;4;4;
56688;PMS5003;42565;53.342;-1.534;2022-09-01T09:50:34;4;3;
56688;PMS5003;42565;53.342;-1.534;2022-09-01T09:53:09;2;2;
56688;PMS5003;42565;53.342;-1.534;2022-09-01T09:55:48;4;4;
56688;PMS5003;42565;53.342;-1.534;2022-09-01T09:58:20;3;3;
56688;PMS5003;42565;53.342;-1.534;2022-09-01T10:00:57;4;4;
56688;PMS5003;42565;53.342;-1.534;2022-09-01T10:03:32;3;2;
56688;PMS5003;42565;53.342;-1.534;2022-09-01T10:06:02;4;4;
56688;PMS5003;42565;53.342;-1.534;2022-09-01T10:08:39;3;3;
56688;PMS5003;42565;53.342;-1.534;2022-09-01T10:11:10;4;4;
56688;PMS5003;42565;53.342;-1.534;2022-09-01T10:13:51;5;4;
56688;PMS5003;42565;53.342;-1.534;2022-09-01T10:16:19;4;4;
56688;PMS5003;42565;53.342;-1.534;2022-09-01T10:18:51;4;4;
56688;PMS5003;42565;53.342;-1.534;2022-09-01T10:21:21;6;5;
56688;PMS5003;42565;53.342;-1.534;2022-09-01T10:23:52;5;5;
56688;PMS5003;42565;53.342;-1.534;2022-09-01T10:26:21;3;3;
56688;PMS5003;42565;53.342;-1.534;2022-09-01T10:28:53;2;2;
56688;PMS5003;42565;53.342;-1.534;2022-09-01T10:31:24;4;3;
56688;PMS5003;42565;53.342;-1.534;2022-09-01T10:33:52;1;1;
56688;PMS5003;42565;53.342;-1.534;2022-09-01T10:36:19;3;3;
56688;PMS5003;42565;53.342;-1.534;2022-09-01T10:38:47;1;1;
56688;PMS5003;42565;53.342;-1.534;2022-09-01T10:41:42;2;2;
56688;PMS5003;42565;53.342;-1.534;2022-09-01T10:44:12;2;2;
56688;PMS5003;42565;53.342;-1.534;2022-09-01T10:46:45;1;1;
56688;PMS5003;42565;53.342;-1.534;2022-09-01T10:49:18;3;3;
56688;PMS5003;42565;53.342;-1.534;2022-09-01T10:51:48;3;3;
56688;PMS5003;42565;53.342;-1.534;2022-09-01T10:54:50;4;4;
56688;PMS5003;42565;53.342;-1.534;2022-09-01T10:57:29;4;3;
56688;PMS5003;42565;53.342;-1.534;2022-09-01T11:01:11;4;4;
56688;PMS5003;42565;53.342;-1.534;2022-09-01T11:03:49;2;2;
56688;PMS5003;42565;53.342;-1.534;2022-09-01T11:06:52;2;2;
56688;PMS5003;42565;53.342;-1.534;2022-09-01T11:09:23;3;3;
56688;PMS5003;42565;53.342;-1.534;2022-09-01T11:12:07;4;4;
56688;PMS5003;42565;53.342;-1.534;2022-09-01T11:14:46;3;3;
56688;PMS5003;42565;53.342;-1.534;2022-09-01T11:17:17;3;2;
56688;PMS5003;42565;53.342;-1.534;2022-09-01T11:19:53;3;3;
56688;PMS5003;42565;53.342;-1.534;2022-09-01T11:22:24;3;3;
56688;PMS5003;42565;53.342;-1.534;2022-09-01T11:25:08;3;3;
56688;PMS5003;42565;53.342;-1.534;2022-09-01T11:27:55;3;3;
56688;PMS5003;42565;53.342;-1.534;2022-09-01T11:30:30;3;3;
56688;PMS5003;42565;53.342;-1.534;2022-09-01T11:33:05;2;2;
56688;PMS5003;42565;53.342;-1.534;2022-09-01T11:35:44;2;2;
56688;PMS5003;42565;53.342;-1.534;2022-09-01T11:38:13;2;2;
56688;PMS5003;42565;53.342;-1.534;2022-09-01T11:40:43;3;3;
56688;PMS5003;42565;53.342;-1.534;2022-09-01T11:43:20;3;3;
56688;PMS5003;42565;53.342;-1.534;2022-09-01T11:45:51;4;3;
56688;PMS5003;42565;53.342;-1.534;2022-09-01T11:48:28;4;4;
56688;PMS5003;42565;53.342;-1.534;2022-09-01T11:50:56;4;4;
56688;PMS5003;42565;53.342;-1.534;2022-09-01T11:53:25;1;1;
56688;PMS5003;42565;53.342;-1.534;2022-09-01T11:55:53;5;4;
56688;PMS5003;42565;53.342;-1.534;2022-09-01T11:58:30;3;3;
56688;PMS5003;42565;53.342;-1.534;2022-09-01T12:01:10;5;4;
56688;PMS5003;42565;53.342;-1.534;2022-09-01T12:03:41;3;3;
56688;PMS5003;42565;53.342;-1.534;2022-09-01T12:06:10;4;4;
56688;PMS5003;42565;53.342;-1.534;2022-09-01T12:08:49;5;4;
56688;PMS5003;42565;53.342;-1.534;2022-09-01T12:11:20;3;3;
56688;PMS5003;42565;53.342;-1.534;2022-09-01T12:13:54;6;4;
56688;PMS5003;42565;53.342;-1.534;2022-09-01T12:16:24;4;4;
56688;PMS5003;42565;53.342;-1.534;2022-09-01T12:18:53;3;3;
56688;PMS5003;42565;53.342;-1.534;2022-09-01T12:21:23;4;4;
56688;PMS5003;42565;53.342;-1.534;2022-09-01T12:23:53;2;2;
56688;PMS5003;42565;53.342;-1.534;2022-09-01T12:26:35;3;2;
56688;PMS5003;42565;53.342;-1.534;2022-09-01T12:29:03;5;5;
56688;PMS5003;42565;53.342;-1.534;2022-09-01T12:31:31;5;5;
56688;PMS5003;42565;53.342;-1.534;2022-09-01T12:33:58;5;4;
56688;PMS5003;42565;53.342;-1.534;2022-09-01T12:36:27;3;3;
56688;PMS5003;42565;53.342;-1.534;2022-09-01T12:38:56;3;3;
56688;PMS5003;42565;53.342;-1.534;2022-09-01T12:41:45;3;3;
56688;PMS5003;42565;53.342;-1.534;2022-09-01T12:44:26;4;4;
56688;PMS5003;42565;53.342;-1.534;2022-09-01T12:46:54;3;3;
56688;PMS5003;42565;53.342;-1.534;2022-09-01T12:49:23;4;4;
56688;PMS5003;42565;53.342;-1.534;2022-09-01T12:52:25;4;4;
56688;PMS5003;42565;53.342;-1.534;2022-09-01T12:55:05;5;5;
56688;PMS5003;42565;53.342;-1.534;2022-09-01T12:57:40;6;5;
56688;PMS5003;42565;53.342;-1.534;2022-09-01T13:00:15;5;5;
56688;PMS5003;42565;53.342;-1.534;2022-09-01T13:02:45;7;5;
56688;PMS5003;42565;53.342;-1.534;2022-09-01T13:05:23;3;3;
56688;PMS5003;42565;53.342;-1.534;2022-09-01T13:07:53;5;5;
56688;PMS5003;42565;53.342;-1.534;2022-09-01T13:10:21;4;4;
56688;PMS5003;42565;53.342;-1.534;2022-09-01T13:12:50;3;3;
56688;PMS5003;42565;53.342;-1.534;2022-09-01T13:15:17;5;4;
56688;PMS5003;42565;53.342;-1.534;2022-09-01T13:17:44;6;4;
56688;PMS5003;42565;53.342;-1.534;2022-09-01T13:20:12;5;5;
56688;PMS5003;42565;53.342;-1.534;2022-09-01T13:22:39;5;4;
56688;PMS5003;42565;53.342;-1.534;2022-09-01T13:25:07;3;3;
56688;PMS5003;42565;53.342;-1.534;2022-09-01T13:27:35;4;3;
56688;PMS5003;42565;53.342;-1.534;2022-09-01T13:30:02;3;3;
56688;PMS5003;42565;53.342;-1.534;2022-09-01T13:32:30;3;3;
56688;PMS5003;42565;53.342;-1.534;2022-09-01T13:34:58;3;2;
56688;PMS5003;42565;53.342;-1.534;2022-09-01T13:37:26;4;3;
56688;PMS5003;42565;53.342;-1.534;2022-09-01T13:39:53;4;3;
56688;PMS5003;42565;53.342;-1.534;2022-09-01T13:42:20;3;3;
56688;PMS5003;42565;53.342;-1.534;2022-09-01T13:44:47;3;3;
56688;PMS5003;42565;53.342;-1.534;2022-09-01T13:47:15;3;3;
56688;PMS5003;42565;53.342;-1.534;2022-09-01T13:49:42;4;2;
56688;PMS5003;42565;53.342;-1.534;2022-09-01T13:52:09;3;3;
56688;PMS5003;42565;53.342;-1.534;2022-09-01T13:54:37;3;2;
56688;PMS5003;42565;53.342;-1.534;2022-09-01T13:57:05;3;3;
56688;PMS5003;42565;53.342;-1.534;2022-09-01T13:59:32;3;3;
56688;PMS5003;42565;53.342;-1.534;2022-09-01T14:01:59;3;3;
56688;PMS5003;42565;53.342;-1.534;2022-09-01T14:04:27;4;4;
56688;PMS5003;42565;53.342;-1.534;2022-09-01T14:06:57;4;4;
56688;PMS5003;42565;53.342;-1.534;2022-09-01T14:09:23;3;3;
56688;PMS5003;42565;53.342;-1.534;2022-09-01T14:11:51;2;2;
56688;PMS5003;42565;53.342;-1.534;2022-09-01T14:14:18;2;2;
56688;PMS5003;42565;53.342;-1.534;2022-09-01T14:16:46;3;3;
56688;PMS5003;42565;53.342;-1.534;2022-09-01T14:19:13;2;2;
56688;PMS5003;42565;53.342;-1.534;2022-09-01T14:21:41;2;2;
56688;PMS5003;42565;53.342;-1.534;2022-09-01T14:24:09;2;2;
56688;PMS5003;42565;53.342;-1.534;2022-09-01T14:26:36;2;2;
56688;PMS5003;42565;53.342;-1.534;2022-09-01T14:29:03;5;4;
56688;PMS5003;42565;53.342;-1.534;2022-09-01T14:31:29;5;5;
56688;PMS5003;42565;53.342;-1.534;2022-09-01T14:33:56;4;4;
56688;PMS5003;42565;53.342;-1.534;2022-09-01T14:36:23;6;5;
56688;PMS5003;42565;53.342;-1.534;2022-09-01T14:38:52;5;5;
56688;PMS5003;42565;53.342;-1.534;2022-09-01T14:41:20;5;5;
56688;PMS5003;42565;53.342;-1.534;2022-09-01T14:43:49;6;5;
56688;PMS5003;42565;53.342;-1.534;2022-09-01T14:46:17;5;5;
56688;PMS5003;42565;53.342;-1.534;2022-09-01T14:48:45;4;3;
56688;PMS5003;42565;53.342;-1.534;2022-09-01T14:51:18;4;4;
56688;PMS5003;42565;53.342;-1.534;2022-09-01T14:53:47;4;4;
56688;PMS5003;42565;53.342;-1.534;2022-09-01T14:56:13;4;4;
56688;PMS5003;42565;53.342;-1.534;2022-09-01T14:58:41;5;4;
56688;PMS5003;42565;53.342;-1.534;2022-09-01T15:01:08;5;4;
56688;PMS5003;42565;53.342;-1.534;2022-09-01T15:03:35;1;1;
56688;PMS5003;42565;53.342;-1.534;2022-09-01T15:06:02;5;4;
56688;PMS5003;42565;53.342;-1.534;2022-09-01T15:08:30;3;3;
56688;PMS5003;42565;53.342;-1.534;2022-09-01T15:10:57;4;4;
56688;PMS5003;42565;53.342;-1.534;2022-09-01T15:13:24;4;4;
56688;PMS5003;42565;53.342;-1.534;2022-09-01T15:15:51;4;4;
56688;PMS5003;42565;53.342;-1.534;2022-09-01T15:18:18;2;2;
56688;PMS5003;42565;53.342;-1.534;2022-09-01T15:20:44;3;3;
56688;PMS5003;42565;53.342;-1.534;2022-09-01T15:23:11;3;3;
56688;PMS5003;42565;53.342;-1.534;2022-09-01T15:25:40;3;3;
56688;PMS5003;42565;53.342;-1.534;2022-09-01T15:28:08;3;3;
56688;PMS5003;42565;53.342;-1.534;2022-09-01T15:30:36;2;2;
56688;PMS5003;42565;53.342;-1.534;2022-09-01T15:33:04;3;3;
56688;PMS5003;42565;53.342;-1.534;2022-09-01T15:35:33;4;4;
56688;PMS5003;42565;53.342;-1.534;2022-09-01T15:38:00;3;3;
56688;PMS5003;42565;53.342;-1.534;2022-09-01T15:40:28;4;3;
56688;PMS5003;42565;53.342;-1.534;2022-09-01T15:42:56;3;3;
56688;PMS5003;42565;53.342;-1.534;2022-09-01T15:45:23;4;3;
56688;PMS5003;42565;53.342;-1.534;2022-09-01T15:47:52;3;3;
56688;PMS5003;42565;53.342;-1.534;2022-09-01T15:50:21;2;2;
56688;PMS5003;42565;53.342;-1.534;2022-09-01T15:52:50;4;3;
56688;PMS5003;42565;53.342;-1.534;2022-09-01T15:55:20;4;4;
56688;PMS5003;42565;53.342;-1.534;2022-09-01T15:57:50;2;2;
56688;PMS5003;42565;53.342;-1.534;2022-09-01T16:00:18;3;2;
56688;PMS5003;42565;53.342;-1.534;2022-09-01T16:02:45;5;5;
56688;PMS5003;42565;53.342;-1.534;2022-09-01T16:05:12;3;2;
56688;PMS5003;42565;53.342;-1.534;2022-09-01T16:07:40;5;5;
56688;PMS5003;42565;53.342;-1.534;2022-09-01T16:10:09;4;4;
56688;PMS5003;42565;53.342;-1.534;2022-09-01T16:12:39;3;3;
56688;PMS5003;42565;53.342;-1.534;2022-09-01T16:15:08;3;3;
56688;PMS5003;42565;53.342;-1.534;2022-09-01T16:17:41;3;3;
56688;PMS5003;42565;53.342;-1.534;2022-09-01T16:20:18;4;3;
56688;PMS5003;42565;53.342;-1.534;2022-09-01T16:22:51;4;4;
56688;PMS5003;42565;53.342;-1.534;2022-09-01T16:25:24;3;2;
56688;PMS5003;42565;53.342;-1.534;2022-09-01T16:27:54;6;4;
56688;PMS5003;42565;53.342;-1.534;2022-09-01T16:30:23;5;4;
56688;PMS5003;42565;53.342;-1.534;2022-09-01T16:32:52;5;5;
56688;PMS5003;42565;53.342;-1.534;2022-09-01T16:35:24;3;3;
56688;PMS5003;42565;53.342;-1.534;2022-09-01T16:38:07;3;3;